Time,TemperatureF,DewpointF,PressureIn,WindDirection,WindDirectionDegrees,WindSpeedMPH,WindSpeedGustMPH,Humidity,HourlyPrecipIn,Conditions,Clouds,dailyrainin,SoftwareType,DateUTC
2013-04-23 00:00:00,60.0,45.0,-100.00,ESE,107,0.0,-999.0,57,0.00,,,-99.99,,2013-04-23 07:00:00,
2013-04-23 00:22:00,60.0,45.0,-100.00,ESE,107,0.0,-999.0,57,0.00,,,-99.99,,2013-04-23 07:22:00,
2013-04-23 00:32:00,60.0,45.0,-100.00,ESE,107,0.0,-999.0,57,0.00,,,-99.99,,2013-04-23 07:32:00,
2013-04-23 00:42:00,60.0,45.0,-100.00,ESE,107,0.0,-999.0,57,0.00,,,-99.99,,2013-04-23 07:42:00,
2013-04-23 00:52:00,60.0,45.0,-100.00,ESE,107,0.0,-999.0,57,0.00,,,-99.99,,2013-04-23 07:52:00,
2013-04-23 01:00:00,57.0,46.0,-100.00,South,169,4.0,-999.0,66,0.00,,,-99.99,,2013-04-23 08:00:00,
2013-04-23 01:22:00,57.0,46.0,-100.00,South,169,4.0,-999.0,66,0.00,,,-99.99,,2013-04-23 08:22:00,
2013-04-23 01:32:00,57.0,46.0,-100.00,South,169,4.0,-999.0,66,0.00,,,-99.99,,2013-04-23 08:32:00,
2013-04-23 01:42:00,57.0,46.0,-100.00,South,169,4.0,-999.0,66,0.00,,,-99.99,,2013-04-23 08:42:00,
2013-04-23 01:52:00,57.0,46.0,-100.00,South,169,4.0,-999.0,66,0.00,,,-99.99,,2013-04-23 08:52:00,
2013-04-23 02:00:00,54.0,46.0,-100.00,South,174,4.0,-999.0,73,0.00,,,-99.99,,2013-04-23 09:00:00,
2013-04-23 02:22:00,54.0,46.0,-100.00,South,174,4.0,-999.0,73,0.00,,,-99.99,,2013-04-23 09:22:00,
2013-04-23 02:33:00,54.0,46.0,-100.00,South,174,4.0,-999.0,73,0.00,,,-99.99,,2013-04-23 09:33:00,
2013-04-23 02:43:00,54.0,46.0,-100.00,South,174,4.0,-999.0,73,0.00,,,-99.99,,2013-04-23 09:43:00,
2013-04-23 02:53:00,54.0,46.0,-100.00,South,174,4.0,-999.0,73,0.00,,,-99.99,,2013-04-23 09:53:00,
2013-04-23 03:00:00,51.0,45.0,-100.00,SSE,161,5.0,-999.0,77,0.00,,,-99.99,,2013-04-23 10:00:00,
2013-04-23 03:23:00,51.0,45.0,-100.00,SSE,161,5.0,-999.0,77,0.00,,,-99.99,,2013-04-23 10:23:00,
2013-04-23 03:33:00,51.0,45.0,-100.00,SSE,161,5.0,-999.0,77,0.00,,,-99.99,,2013-04-23 10:33:00,
2013-04-23 03:42:00,51.0,45.0,-100.00,SSE,161,5.0,-999.0,77,0.00,,,-99.99,,2013-04-23 10:42:00,
2013-04-23 03:52:00,51.0,45.0,-100.00,SSE,161,5.0,-999.0,77,0.00,,,-99.99,,2013-04-23 10:52:00,
2013-04-23 04:00:00,52.0,42.0,-100.00,WSW,252,1.0,-999.0,68,0.00,,,-99.99,,2013-04-23 11:00:00,
2013-04-23 04:22:00,52.0,42.0,-100.00,WSW,252,1.0,-999.0,68,0.00,,,-99.99,,2013-04-23 11:22:00,
2013-04-23 04:32:00,52.0,42.0,-100.00,WSW,252,1.0,-999.0,68,0.00,,,-99.99,,2013-04-23 11:32:00,
2013-04-23 04:43:00,52.0,42.0,-100.00,WSW,252,1.0,-999.0,68,0.00,,,-99.99,,2013-04-23 11:43:00,
2013-04-23 04:53:00,52.0,42.0,-100.00,WSW,252,1.0,-999.0,68,0.00,,,-99.99,,2013-04-23 11:53:00,
2013-04-23 05:22:00,52.0,42.0,-100.00,SSE,160,5.0,-999.0,69,0.00,,,-99.99,,2013-04-23 12:22:00,
2013-04-23 05:32:00,52.0,42.0,-100.00,SSE,160,5.0,-999.0,69,0.00,,,-99.99,,2013-04-23 12:32:00,
2013-04-23 05:42:00,52.0,42.0,-100.00,SSE,160,5.0,-999.0,69,0.00,,,-99.99,,2013-04-23 12:42:00,
2013-04-23 05:52:00,52.0,42.0,-100.00,SSE,160,5.0,-999.0,69,0.00,,,-99.99,,2013-04-23 12:52:00,
2013-04-23 06:00:00,53.0,38.0,-100.00,South,181,4.0,-999.0,56,0.00,,,-99.99,,2013-04-23 13:00:00,
2013-04-23 06:22:00,53.0,38.0,-100.00,South,181,4.0,-999.0,56,0.00,,,-99.99,,2013-04-23 13:22:00,
2013-04-23 06:32:00,53.0,38.0,-100.00,South,181,4.0,-999.0,56,0.00,,,-99.99,,2013-04-23 13:32:00,
2013-04-23 06:42:00,53.0,38.0,-100.00,South,181,4.0,-999.0,56,0.00,,,-99.99,,2013-04-23 13:42:00,
2013-04-23 06:52:00,53.0,38.0,-100.00,South,181,4.0,-999.0,56,0.00,,,-99.99,,2013-04-23 13:52:00,
2013-04-23 07:00:00,49.0,39.0,-100.00,South,176,3.0,-999.0,68,0.00,,,-99.99,,2013-04-23 14:00:00,
2013-04-23 07:22:00,49.0,39.0,-100.00,South,176,3.0,-999.0,68,0.00,,,-99.99,,2013-04-23 14:22:00,
2013-04-23 07:32:00,49.0,39.0,-100.00,South,176,3.0,-999.0,68,0.00,,,-99.99,,2013-04-23 14:32:00,
2013-04-23 07:42:00,49.0,39.0,-100.00,South,176,3.0,-999.0,68,0.00,,,-99.99,,2013-04-23 14:42:00,
2013-04-23 07:52:00,49.0,39.0,-100.00,South,176,3.0,-999.0,68,0.00,,,-99.99,,2013-04-23 14:52:00,
2013-04-23 08:00:00,49.0,37.0,-100.00,SSE,162,3.0,-999.0,63,0.00,,,-99.99,,2013-04-23 15:00:00,
2013-04-23 08:22:00,49.0,37.0,-100.00,SSE,162,3.0,-999.0,63,0.00,,,-99.99,,2013-04-23 15:22:00,
2013-04-23 08:32:00,49.0,37.0,-100.00,SSE,162,3.0,-999.0,63,0.00,,,-99.99,,2013-04-23 15:32:00,
2013-04-23 08:43:00,49.0,37.0,-100.00,SSE,162,3.0,-999.0,63,0.00,,,-99.99,,2013-04-23 15:43:00,
2013-04-23 08:53:00,49.0,37.0,-100.00,SSE,162,3.0,-999.0,63,0.00,,,-99.99,,2013-04-23 15:53:00,
2013-04-23 09:00:00,53.0,35.0,-100.00,South,176,3.0,-999.0,50,0.00,,,-99.99,,2013-04-23 16:00:00,
2013-04-23 09:23:00,53.0,35.0,-100.00,South,176,3.0,-999.0,50,0.00,,,-99.99,,2013-04-23 16:23:00,
2013-04-23 09:34:00,53.0,35.0,-100.00,South,176,3.0,-999.0,50,0.00,,,-99.99,,2013-04-23 16:34:00,
2013-04-23 09:43:00,53.0,35.0,-100.00,South,176,3.0,-999.0,50,0.00,,,-99.99,,2013-04-23 16:43:00,
2013-04-23 09:52:00,53.0,35.0,-100.00,South,176,3.0,-999.0,50,0.00,,,-99.99,,2013-04-23 16:52:00,
2013-04-23 10:00:00,63.0,38.0,-100.00,South,178,3.0,-999.0,39,0.00,,,-99.99,,2013-04-23 17:00:00,
2013-04-23 10:22:00,63.0,38.0,-100.00,South,178,3.0,-999.0,39,0.00,,,-99.99,,2013-04-23 17:22:00,
2013-04-23 10:33:00,63.0,38.0,-100.00,South,178,3.0,-999.0,39,0.00,,,-99.99,,2013-04-23 17:33:00,
2013-04-23 10:43:00,63.0,38.0,-100.00,South,178,3.0,-999.0,39,0.00,,,-99.99,,2013-04-23 17:43:00,
2013-04-23 10:53:00,63.0,38.0,-100.00,South,178,3.0,-999.0,39,0.00,,,-99.99,,2013-04-23 17:53:00,
2013-04-23 11:00:00,73.0,-99.9,-100.00,SSE,150,3.0,-999.0,19,0.00,,,-99.99,,2013-04-23 18:00:00,
2013-04-23 11:22:00,73.0,29.0,-100.00,SSE,150,3.0,-999.0,19,0.00,,,-99.99,,2013-04-23 18:22:00,
2013-04-23 11:32:00,73.0,29.0,-100.00,SSE,150,3.0,-999.0,19,0.00,,,-99.99,,2013-04-23 18:32:00,
2013-04-23 11:42:00,73.0,-99.9,-100.00,SSE,150,3.0,-999.0,19,0.00,,,-99.99,,2013-04-23 18:42:00,
2013-04-23 11:52:00,73.0,-99.9,-100.00,SSE,150,3.0,-999.0,19,0.00,,,-99.99,,2013-04-23 18:52:00,
2013-04-23 12:00:00,77.0,-99.9,-100.00,SSE,152,4.0,-999.0,15,0.00,,,-99.99,,2013-04-23 19:00:00,
2013-04-23 12:22:00,77.0,27.0,-100.00,SSE,152,4.0,-999.0,15,0.00,,,-99.99,,2013-04-23 19:22:00,
2013-04-23 12:32:00,77.0,27.0,-100.00,SSE,152,4.0,-999.0,15,0.00,,,-99.99,,2013-04-23 19:32:00,
2013-04-23 12:42:00,77.0,-99.9,-100.00,SSE,152,4.0,-999.0,15,0.00,,,-99.99,,2013-04-23 19:42:00,
2013-04-23 12:52:00,77.0,-99.9,-100.00,SSE,152,4.0,-999.0,15,0.00,,,-99.99,,2013-04-23 19:52:00,
2013-04-23 13:00:00,77.0,39.0,-100.00,South,185,2.0,-999.0,25,0.00,,,-99.99,,2013-04-23 20:00:00,
2013-04-23 13:22:00,77.0,39.0,-100.00,South,185,2.0,-999.0,25,0.00,,,-99.99,,2013-04-23 20:22:00,
2013-04-23 13:32:00,77.0,39.0,-100.00,South,185,2.0,-999.0,25,0.00,,,-99.99,,2013-04-23 20:32:00,
2013-04-23 13:42:00,77.0,39.0,-100.00,South,185,2.0,-999.0,25,0.00,,,-99.99,,2013-04-23 20:42:00,
2013-04-23 13:52:00,77.0,39.0,-100.00,South,185,2.0,-999.0,25,0.00,,,-99.99,,2013-04-23 20:52:00,
2013-04-23 14:00:00,73.0,36.0,-100.00,North,349,3.0,-999.0,25,0.00,,,-99.99,,2013-04-23 21:00:00,
2013-04-23 14:22:00,73.0,36.0,-100.00,North,349,3.0,-999.0,25,0.00,,,-99.99,,2013-04-23 21:22:00,
2013-04-23 14:33:00,73.0,36.0,-100.00,North,349,3.0,-999.0,25,0.00,,,-99.99,,2013-04-23 21:33:00,
2013-04-23 14:43:00,73.0,36.0,-100.00,North,349,3.0,-999.0,25,0.00,,,-99.99,,2013-04-23 21:43:00,
2013-04-23 14:52:00,73.0,36.0,-100.00,North,349,3.0,-999.0,25,0.00,,,-99.99,,2013-04-23 21:52:00,
2013-04-23 15:00:00,71.0,39.0,-100.00,NNW,339,5.0,-999.0,31,0.00,,,-99.99,,2013-04-23 22:00:00,
2013-04-23 15:23:00,71.0,39.0,-100.00,NNW,339,5.0,-999.0,31,0.00,,,-99.99,,2013-04-23 22:23:00,
2013-04-23 15:33:00,71.0,39.0,-100.00,NNW,339,5.0,-999.0,31,0.00,,,-99.99,,2013-04-23 22:33:00,
2013-04-23 15:42:00,71.0,39.0,-100.00,NNW,339,5.0,-999.0,31,0.00,,,-99.99,,2013-04-23 22:42:00,
2013-04-23 15:52:00,71.0,39.0,-100.00,NNW,339,5.0,-999.0,31,0.00,,,-99.99,,2013-04-23 22:52:00,
2013-04-23 16:00:00,70.0,37.0,-100.00,WNW,285,0.0,-999.0,30,0.00,,,-99.99,,2013-04-23 23:00:00,
2013-04-23 16:22:00,70.0,37.0,-100.00,WNW,285,0.0,-999.0,30,0.00,,,-99.99,,2013-04-23 23:22:00,
2013-04-23 16:32:00,70.0,37.0,-100.00,WNW,285,0.0,-999.0,30,0.00,,,-99.99,,2013-04-23 23:32:00,
2013-04-23 16:42:00,70.0,37.0,-100.00,WNW,285,0.0,-999.0,30,0.00,,,-99.99,,2013-04-23 23:42:00,
2013-04-23 16:52:00,70.0,37.0,-100.00,WNW,285,0.0,-999.0,30,0.00,,,-99.99,,2013-04-23 23:52:00,
2013-04-23 17:00:00,71.0,-99.9,-100.00,NNW,327,4.0,-999.0,24,0.00,,,-99.99,,2013-04-24 00:00:00,
2013-04-23 17:22:00,71.0,33.0,-100.00,NNW,327,4.0,-999.0,24,0.00,,,-99.99,,2013-04-24 00:22:00,
2013-04-23 17:32:00,71.0,33.0,-100.00,NNW,327,4.0,-999.0,24,0.00,,,-99.99,,2013-04-24 00:32:00,
2013-04-23 17:42:00,71.0,-99.9,-100.00,NNW,327,4.0,-999.0,24,0.00,,,-99.99,,2013-04-24 00:42:00,
2013-04-23 17:52:00,71.0,-99.9,-100.00,NNW,327,4.0,-999.0,24,0.00,,,-99.99,,2013-04-24 00:52:00,
2013-04-23 18:00:00,70.0,-99.9,-100.00,North,352,3.0,-999.0,18,0.00,,,-99.99,,2013-04-24 01:00:00,
2013-04-23 18:21:00,70.0,25.0,-100.00,North,352,3.0,-999.0,18,0.00,,,-99.99,,2013-04-24 01:21:00,
2013-04-23 18:32:00,70.0,25.0,-100.00,North,352,3.0,-999.0,18,0.00,,,-99.99,,2013-04-24 01:32:00,
2013-04-23 18:43:00,70.0,-99.9,-100.00,North,352,3.0,-999.0,18,0.00,,,-99.99,,2013-04-24 01:43:00,
2013-04-23 18:52:00,70.0,-99.9,-100.00,North,352,3.0,-999.0,18,0.00,,,-99.99,,2013-04-24 01:52:00,
2013-04-23 19:00:00,67.0,-99.9,-100.00,SSW,211,1.0,-999.0,23,0.00,,,-99.99,,2013-04-24 02:00:00,
2013-04-23 19:30:00,67.0,29.0,-100.00,SSW,211,1.0,-999.0,23,0.00,,,-99.99,,2013-04-24 02:30:00,
2013-04-23 19:42:00,67.0,29.0,-100.00,SSW,211,1.0,-999.0,23,0.00,,,-99.99,,2013-04-24 02:42:00,
2013-04-23 19:52:00,67.0,-99.9,-100.00,SSW,211,1.0,-999.0,23,0.00,,,-99.99,,2013-04-24 02:52:00,
2013-04-23 20:32:00,64.0,29.0,-100.00,NNW,344,1.0,-999.0,27,0.00,,,-99.99,,2013-04-24 03:32:00,
2013-04-23 20:43:00,64.0,29.0,-100.00,NNW,344,1.0,-999.0,27,0.00,,,-99.99,,2013-04-24 03:43:00,
2013-04-23 21:23:00,59.0,35.0,-100.00,NNW,346,4.0,-999.0,40,0.00,,,-99.99,,2013-04-24 04:23:00,
2013-04-23 21:33:00,59.0,35.0,-100.00,NNW,346,4.0,-999.0,40,0.00,,,-99.99,,2013-04-24 04:33:00,
2013-04-23 21:43:00,59.0,35.0,-100.00,NNW,346,4.0,-999.0,40,0.00,,,-99.99,,2013-04-24 04:43:00,
2013-04-23 21:52:00,59.0,35.0,-100.00,NNW,346,4.0,-999.0,40,0.00,,,-99.99,,2013-04-24 04:52:00,
2013-04-23 22:22:00,55.0,37.0,-100.00,North,350,4.0,-999.0,52,0.00,,,-99.99,,2013-04-24 05:22:00,
2013-04-23 22:32:00,55.0,37.0,-100.00,North,350,4.0,-999.0,52,0.00,,,-99.99,,2013-04-24 05:32:00,
2013-04-23 22:42:00,55.0,37.0,-100.00,North,350,4.0,-999.0,52,0.00,,,-99.99,,2013-04-24 05:42:00,
2013-04-23 22:52:00,55.0,37.0,-100.00,North,350,4.0,-999.0,52,0.00,,,-99.99,,2013-04-24 05:52:00,
2013-04-23 23:00:00,52.0,39.0,-100.00,North,355,2.0,-999.0,61,0.00,,,-99.99,,2013-04-24 06:00:00,
2013-04-23 23:22:00,52.0,39.0,-100.00,North,355,2.0,-999.0,61,0.00,,,-99.99,,2013-04-24 06:22:00,
2013-04-23 23:33:00,52.0,39.0,-100.00,North,355,2.0,-999.0,61,0.00,,,-99.99,,2013-04-24 06:33:00,
2013-04-23 23:42:00,52.0,39.0,-100.00,North,355,2.0,-999.0,61,0.00,,,-99.99,,2013-04-24 06:42:00,
2013-04-23 23:52:00,52.0,39.0,-100.00,North,355,2.0,-999.0,61,0.00,,,-99.99,,2013-04-24 06:52:00,